sensor_id;sensor_type;location;lat;lon;timestamp;pressure;altitude;pressure_sealevel;temperature
12234;BMP180;6179;51.748;8.728;2023-04-06T00:02:41;108408.00;;;222.90
12234;BMP180;6179;51.748;8.728;2023-04-06T00:08:42;108411.00;;;222.90
12234;BMP180;6179;51.748;8.728;2023-04-06T00:14:45;108416.00;;;222.90
12234;BMP180;6179;51.748;8.728;2023-04-06T00:20:45;108413.00;;;222.90
12234;BMP180;6179;51.748;8.728;2023-04-06T00:26:46;108411.00;;;222.90
12234;BMP180;6179;51.748;8.728;2023-04-06T00:32:47;108413.00;;;222.90
12234;BMP180;6179;51.748;8.728;2023-04-06T00:38:48;108414.00;;;222.90
12234;BMP180;6179;51.748;8.728;2023-04-06T00:44:49;108412.00;;;222.90
12234;BMP180;6179;51.748;8.728;2023-04-06T00:50:50;108415.00;;;222.90
12234;BMP180;6179;51.748;8.728;2023-04-06T00:56:51;108409.00;;;222.90
12234;BMP180;6179;51.748;8.728;2023-04-06T01:02:53;108410.00;;;222.90
12234;BMP180;6179;51.748;8.728;2023-04-06T01:08:54;108415.00;;;222.90
12234;BMP180;6179;51.748;8.728;2023-04-06T01:14:55;108416.00;;;222.90
12234;BMP180;6179;51.748;8.728;2023-04-06T01:20:56;108413.00;;;222.90
12234;BMP180;6179;51.748;8.728;2023-04-06T01:26:57;108412.00;;;222.90
12234;BMP180;6179;51.748;8.728;2023-04-06T01:32:58;108415.00;;;222.90
12234;BMP180;6179;51.748;8.728;2023-04-06T01:38:58;108419.00;;;222.90
12234;BMP180;6179;51.748;8.728;2023-04-06T01:44:59;108415.00;;;222.90
12234;BMP180;6179;51.748;8.728;2023-04-06T01:51:00;108410.00;;;222.90
12234;BMP180;6179;51.748;8.728;2023-04-06T01:57:01;108415.00;;;222.90
12234;BMP180;6179;51.748;8.728;2023-04-06T02:03:03;108409.00;;;222.90
12234;BMP180;6179;51.748;8.728;2023-04-06T02:09:06;108415.00;;;222.90
12234;BMP180;6179;51.748;8.728;2023-04-06T02:15:07;108412.00;;;222.90
12234;BMP180;6179;51.748;8.728;2023-04-06T02:21:08;108414.00;;;222.90
12234;BMP180;6179;51.748;8.728;2023-04-06T02:27:09;108415.00;;;222.90
12234;BMP180;6179;51.748;8.728;2023-04-06T02:33:10;108410.00;;;222.90
12234;BMP180;6179;51.748;8.728;2023-04-06T02:39:12;108423.00;;;222.90
12234;BMP180;6179;51.748;8.728;2023-04-06T02:45:13;108417.00;;;222.90
12234;BMP180;6179;51.748;8.728;2023-04-06T02:51:14;108412.00;;;222.90
12234;BMP180;6179;51.748;8.728;2023-04-06T02:57:15;108412.00;;;222.90
12234;BMP180;6179;51.748;8.728;2023-04-06T03:03:16;108417.00;;;222.90
12234;BMP180;6179;51.748;8.728;2023-04-06T03:09:17;108410.00;;;222.90
12234;BMP180;6179;51.748;8.728;2023-04-06T03:15:17;108416.00;;;222.90
12234;BMP180;6179;51.748;8.728;2023-04-06T03:21:18;108409.00;;;222.90
12234;BMP180;6179;51.748;8.728;2023-04-06T03:27:20;108413.00;;;222.90
12234;BMP180;6179;51.748;8.728;2023-04-06T03:33:21;108413.00;;;222.90
12234;BMP180;6179;51.748;8.728;2023-04-06T03:39:21;108412.00;;;222.90
12234;BMP180;6179;51.748;8.728;2023-04-06T03:45:22;108414.00;;;222.90
12234;BMP180;6179;51.748;8.728;2023-04-06T03:51:23;108418.00;;;222.90
12234;BMP180;6179;51.748;8.728;2023-04-06T03:57:24;108413.00;;;222.90
12234;BMP180;6179;51.748;8.728;2023-04-06T04:03:25;108414.00;;;222.90
12234;BMP180;6179;51.748;8.728;2023-04-06T04:09:27;108423.00;;;222.90
12234;BMP180;6179;51.748;8.728;2023-04-06T04:15:28;108415.00;;;222.90
12234;BMP180;6179;51.748;8.728;2023-04-06T04:21:30;108416.00;;;222.90
12234;BMP180;6179;51.748;8.728;2023-04-06T04:27:31;108412.00;;;222.90
12234;BMP180;6179;51.748;8.728;2023-04-06T04:33:32;108417.00;;;222.90
12234;BMP180;6179;51.748;8.728;2023-04-06T04:39:33;108407.00;;;222.90
12234;BMP180;6179;51.748;8.728;2023-04-06T04:45:34;108412.00;;;222.90
12234;BMP180;6179;51.748;8.728;2023-04-06T04:51:35;108418.00;;;222.90
12234;BMP180;6179;51.748;8.728;2023-04-06T04:57:36;108415.00;;;222.90
12234;BMP180;6179;51.748;8.728;2023-04-06T05:03:37;108406.00;;;222.90
12234;BMP180;6179;51.748;8.728;2023-04-06T05:09:40;108416.00;;;222.90
12234;BMP180;6179;51.748;8.728;2023-04-06T05:15:41;108418.00;;;222.90
12234;BMP180;6179;51.748;8.728;2023-04-06T05:21:42;108412.00;;;222.90
12234;BMP180;6179;51.748;8.728;2023-04-06T05:27:42;108421.00;;;222.90
12234;BMP180;6179;51.748;8.728;2023-04-06T05:33:43;108415.00;;;222.90
12234;BMP180;6179;51.748;8.728;2023-04-06T05:39:44;108417.00;;;222.90
12234;BMP180;6179;51.748;8.728;2023-04-06T05:45:45;108415.00;;;222.90
12234;BMP180;6179;51.748;8.728;2023-04-06T05:51:46;108414.00;;;222.90
12234;BMP180;6179;51.748;8.728;2023-04-06T05:57:47;108413.00;;;222.90
12234;BMP180;6179;51.748;8.728;2023-04-06T06:03:48;108417.00;;;222.90
12234;BMP180;6179;51.748;8.728;2023-04-06T06:09:49;108414.00;;;222.90
12234;BMP180;6179;51.748;8.728;2023-04-06T06:15:50;108412.00;;;222.90
12234;BMP180;6179;51.748;8.728;2023-04-06T06:21:51;108413.00;;;222.90
12234;BMP180;6179;51.748;8.728;2023-04-06T06:27:51;108415.00;;;222.90
12234;BMP180;6179;51.748;8.728;2023-04-06T06:33:52;108412.00;;;222.90
12234;BMP180;6179;51.748;8.728;2023-04-06T06:39:53;108417.00;;;222.90
12234;BMP180;6179;51.748;8.728;2023-04-06T06:45:54;108412.00;;;222.90
12234;BMP180;6179;51.748;8.728;2023-04-06T06:51:55;108410.00;;;222.90
12234;BMP180;6179;51.748;8.728;2023-04-06T06:57:56;108413.00;;;222.90
12234;BMP180;6179;51.748;8.728;2023-04-06T07:03:57;108407.00;;;222.90
12234;BMP180;6179;51.748;8.728;2023-04-06T07:09:57;108418.00;;;222.90
12234;BMP180;6179;51.748;8.728;2023-04-06T07:15:58;108416.00;;;222.90
12234;BMP180;6179;51.748;8.728;2023-04-06T07:21:59;108418.00;;;222.90
12234;BMP180;6179;51.748;8.728;2023-04-06T07:28:03;108419.00;;;222.90
12234;BMP180;6179;51.748;8.728;2023-04-06T07:34:04;108417.00;;;222.90
12234;BMP180;6179;51.748;8.728;2023-04-06T07:40:05;108421.00;;;222.90
12234;BMP180;6179;51.748;8.728;2023-04-06T07:46:06;108419.00;;;222.90
12234;BMP180;6179;51.748;8.728;2023-04-06T07:52:07;108423.00;;;222.90
12234;BMP180;6179;51.748;8.728;2023-04-06T07:58:08;108422.00;;;222.90
12234;BMP180;6179;51.748;8.728;2023-04-06T08:04:09;108418.00;;;222.90
12234;BMP180;6179;51.748;8.728;2023-04-06T08:10:10;108421.00;;;222.90
12234;BMP180;6179;51.748;8.728;2023-04-06T08:16:11;108421.00;;;222.90
12234;BMP180;6179;51.748;8.728;2023-04-06T08:22:12;108422.00;;;222.90
12234;BMP180;6179;51.748;8.728;2023-04-06T08:28:12;108421.00;;;222.90
12234;BMP180;6179;51.748;8.728;2023-04-06T08:34:13;108416.00;;;222.90
12234;BMP180;6179;51.748;8.728;2023-04-06T08:40:14;108421.00;;;222.90
12234;BMP180;6179;51.748;8.728;2023-04-06T08:46:17;108416.00;;;222.90
12234;BMP180;6179;51.748;8.728;2023-04-06T08:52:18;108417.00;;;222.90
12234;BMP180;6179;51.748;8.728;2023-04-06T08:58:21;108422.00;;;222.90
12234;BMP180;6179;51.748;8.728;2023-04-06T09:04:23;108419.00;;;222.90
12234;BMP180;6179;51.748;8.728;2023-04-06T09:10:25;108410.00;;;222.90
12234;BMP180;6179;51.748;8.728;2023-04-06T09:16:26;108419.00;;;222.90
12234;BMP180;6179;51.748;8.728;2023-04-06T09:22:36;108414.00;;;222.90
12234;BMP180;6179;51.748;8.728;2023-04-06T09:28:52;108420.00;;;222.90
12234;BMP180;6179;51.748;8.728;2023-04-06T09:34:53;108415.00;;;222.90
12234;BMP180;6179;51.748;8.728;2023-04-06T09:40:53;108421.00;;;222.90
12234;BMP180;6179;51.748;8.728;2023-04-06T09:46:55;108419.00;;;222.90
12234;BMP180;6179;51.748;8.728;2023-04-06T09:52:58;108416.00;;;222.90
12234;BMP180;6179;51.748;8.728;2023-04-06T09:59:10;108420.00;;;222.90
12234;BMP180;6179;51.748;8.728;2023-04-06T10:05:33;108415.00;;;222.90
12234;BMP180;6179;51.748;8.728;2023-04-06T10:11:38;108423.00;;;222.90
12234;BMP180;6179;51.748;8.728;2023-04-06T10:17:39;108418.00;;;222.90
12234;BMP180;6179;51.748;8.728;2023-04-06T10:23:59;108421.00;;;222.90
12234;BMP180;6179;51.748;8.728;2023-04-06T10:30:06;108418.00;;;222.90
12234;BMP180;6179;51.748;8.728;2023-04-06T10:36:14;108416.00;;;222.90
12234;BMP180;6179;51.748;8.728;2023-04-06T10:42:15;108421.00;;;222.90
12234;BMP180;6179;51.748;8.728;2023-04-06T10:48:18;108424.00;;;222.90
12234;BMP180;6179;51.748;8.728;2023-04-06T10:54:22;108420.00;;;222.90
12234;BMP180;6179;51.748;8.728;2023-04-06T11:00:24;108419.00;;;222.90
12234;BMP180;6179;51.748;8.728;2023-04-06T11:06:28;108419.00;;;222.90
12234;BMP180;6179;51.748;8.728;2023-04-06T11:12:30;108425.00;;;222.90
12234;BMP180;6179;51.748;8.728;2023-04-06T11:18:31;108420.00;;;222.90
12234;BMP180;6179;51.748;8.728;2023-04-06T11:24:32;108422.00;;;222.90
12234;BMP180;6179;51.748;8.728;2023-04-06T11:30:33;108417.00;;;222.90
12234;BMP180;6179;51.748;8.728;2023-04-06T11:36:34;230388.00;;;222.90
12234;BMP180;6179;51.748;8.728;2023-04-06T11:42:36;108421.00;;;222.90
12234;BMP180;6179;51.748;8.728;2023-04-06T11:48:45;230388.00;;;222.90
12234;BMP180;6179;51.748;8.728;2023-04-06T11:54:48;230388.00;;;222.90
12234;BMP180;6179;51.748;8.728;2023-04-06T12:00:49;230388.00;;;222.90
12234;BMP180;6179;51.748;8.728;2023-04-06T12:06:50;230388.00;;;222.90
12234;BMP180;6179;51.748;8.728;2023-04-06T12:12:51;230388.00;;;222.90
12234;BMP180;6179;51.748;8.728;2023-04-06T12:18:52;230388.00;;;222.90
12234;BMP180;6179;51.748;8.728;2023-04-06T12:24:53;230388.00;;;222.90
12234;BMP180;6179;51.748;8.728;2023-04-06T12:30:54;230388.00;;;222.90
12234;BMP180;6179;51.748;8.728;2023-04-06T12:36:55;230388.00;;;222.90
12234;BMP180;6179;51.748;8.728;2023-04-06T12:42:56;230388.00;;;222.90
12234;BMP180;6179;51.748;8.728;2023-04-06T12:48:57;230388.00;;;222.90
12234;BMP180;6179;51.748;8.728;2023-04-06T12:54:59;230388.00;;;222.90
12234;BMP180;6179;51.748;8.728;2023-04-06T13:01:07;230388.00;;;222.90
12234;BMP180;6179;51.748;8.728;2023-04-06T13:07:07;230388.00;;;222.90
12234;BMP180;6179;51.748;8.728;2023-04-06T13:13:08;230388.00;;;222.90
12234;BMP180;6179;51.748;8.728;2023-04-06T13:19:09;230388.00;;;222.90
12234;BMP180;6179;51.748;8.728;2023-04-06T13:25:11;230388.00;;;222.90
12234;BMP180;6179;51.748;8.728;2023-04-06T13:31:12;230388.00;;;222.90
12234;BMP180;6179;51.748;8.728;2023-04-06T13:37:13;230388.00;;;222.90
12234;BMP180;6179;51.748;8.728;2023-04-06T13:43:14;230388.00;;;222.90
12234;BMP180;6179;51.748;8.728;2023-04-06T13:49:15;230388.00;;;222.90
12234;BMP180;6179;51.748;8.728;2023-04-06T13:55:16;230388.00;;;222.90
12234;BMP180;6179;51.748;8.728;2023-04-06T14:01:17;230388.00;;;222.90
12234;BMP180;6179;51.748;8.728;2023-04-06T14:07:17;230388.00;;;222.90
12234;BMP180;6179;51.748;8.728;2023-04-06T14:13:18;230388.00;;;222.90
12234;BMP180;6179;51.748;8.728;2023-04-06T14:19:19;230388.00;;;222.90
12234;BMP180;6179;51.748;8.728;2023-04-06T14:25:21;230388.00;;;222.90
12234;BMP180;6179;51.748;8.728;2023-04-06T14:31:22;230388.00;;;222.90
12234;BMP180;6179;51.748;8.728;2023-04-06T14:37:23;230388.00;;;222.90
12234;BMP180;6179;51.748;8.728;2023-04-06T14:43:24;230388.00;;;222.90
12234;BMP180;6179;51.748;8.728;2023-04-06T14:49:26;230388.00;;;222.90
12234;BMP180;6179;51.748;8.728;2023-04-06T14:55:26;230388.00;;;222.90
12234;BMP180;6179;51.748;8.728;2023-04-06T15:01:28;230388.00;;;222.90
12234;BMP180;6179;51.748;8.728;2023-04-06T15:07:28;230388.00;;;222.90
12234;BMP180;6179;51.748;8.728;2023-04-06T15:13:29;230388.00;;;222.90
12234;BMP180;6179;51.748;8.728;2023-04-06T15:19:30;230388.00;;;222.90
12234;BMP180;6179;51.748;8.728;2023-04-06T15:25:31;230388.00;;;222.90
12234;BMP180;6179;51.748;8.728;2023-04-06T15:31:32;230388.00;;;222.90
12234;BMP180;6179;51.748;8.728;2023-04-06T15:37:33;230388.00;;;222.90
12234;BMP180;6179;51.748;8.728;2023-04-06T15:43:34;230388.00;;;222.90
12234;BMP180;6179;51.748;8.728;2023-04-06T15:49:35;230388.00;;;222.90
12234;BMP180;6179;51.748;8.728;2023-04-06T15:55:36;230388.00;;;222.90
12234;BMP180;6179;51.748;8.728;2023-04-06T16:01:37;230388.00;;;222.90
12234;BMP180;6179;51.748;8.728;2023-04-06T16:07:37;230388.00;;;222.90
12234;BMP180;6179;51.748;8.728;2023-04-06T16:13:38;230388.00;;;222.90
12234;BMP180;6179;51.748;8.728;2023-04-06T16:19:39;230388.00;;;222.90
12234;BMP180;6179;51.748;8.728;2023-04-06T16:25:41;230388.00;;;222.90
12234;BMP180;6179;51.748;8.728;2023-04-06T16:31:42;230388.00;;;222.90
12234;BMP180;6179;51.748;8.728;2023-04-06T16:37:46;230388.00;;;222.90
12234;BMP180;6179;51.748;8.728;2023-04-06T16:43:47;230388.00;;;222.90
12234;BMP180;6179;51.748;8.728;2023-04-06T16:49:48;230388.00;;;222.90
12234;BMP180;6179;51.748;8.728;2023-04-06T16:55:50;230388.00;;;222.90
12234;BMP180;6179;51.748;8.728;2023-04-06T17:01:51;230388.00;;;222.90
12234;BMP180;6179;51.748;8.728;2023-04-06T17:07:52;230388.00;;;222.90
12234;BMP180;6179;51.748;8.728;2023-04-06T17:13:53;230388.00;;;222.90
12234;BMP180;6179;51.748;8.728;2023-04-06T17:19:53;230388.00;;;222.90
12234;BMP180;6179;51.748;8.728;2023-04-06T17:25:55;230388.00;;;222.90
12234;BMP180;6179;51.748;8.728;2023-04-06T17:31:57;230388.00;;;222.90
12234;BMP180;6179;51.748;8.728;2023-04-06T17:37:57;230388.00;;;222.90
12234;BMP180;6179;51.748;8.728;2023-04-06T17:43:58;230388.00;;;222.90
12234;BMP180;6179;51.748;8.728;2023-04-06T17:50:01;230388.00;;;222.90
12234;BMP180;6179;51.748;8.728;2023-04-06T17:56:05;230388.00;;;222.90
12234;BMP180;6179;51.748;8.728;2023-04-06T18:02:06;230388.00;;;222.90
12234;BMP180;6179;51.748;8.728;2023-04-06T18:08:06;230388.00;;;222.90
12234;BMP180;6179;51.748;8.728;2023-04-06T18:14:08;230388.00;;;222.90
12234;BMP180;6179;51.748;8.728;2023-04-06T18:20:10;230388.00;;;222.90
12234;BMP180;6179;51.748;8.728;2023-04-06T18:26:19;230388.00;;;222.90
12234;BMP180;6179;51.748;8.728;2023-04-06T18:32:24;230388.00;;;222.90
12234;BMP180;6179;51.748;8.728;2023-04-06T18:38:29;230388.00;;;222.90
12234;BMP180;6179;51.748;8.728;2023-04-06T18:44:30;230388.00;;;222.90
12234;BMP180;6179;51.748;8.728;2023-04-06T18:50:31;108420.00;;;222.90
12234;BMP180;6179;51.748;8.728;2023-04-06T18:56:32;108420.00;;;222.90
12234;BMP180;6179;51.748;8.728;2023-04-06T19:02:33;108421.00;;;222.90
12234;BMP180;6179;51.748;8.728;2023-04-06T19:08:34;108419.00;;;222.90
12234;BMP180;6179;51.748;8.728;2023-04-06T19:14:34;108419.00;;;222.90
12234;BMP180;6179;51.748;8.728;2023-04-06T19:20:35;108423.00;;;222.90
12234;BMP180;6179;51.748;8.728;2023-04-06T19:26:36;108419.00;;;222.90
12234;BMP180;6179;51.748;8.728;2023-04-06T19:32:38;108419.00;;;222.90
12234;BMP180;6179;51.748;8.728;2023-04-06T19:38:39;108416.00;;;222.90
12234;BMP180;6179;51.748;8.728;2023-04-06T19:44:41;108422.00;;;222.90
12234;BMP180;6179;51.748;8.728;2023-04-06T19:50:42;108419.00;;;222.90
12234;BMP180;6179;51.748;8.728;2023-04-06T19:56:43;108420.00;;;222.90
12234;BMP180;6179;51.748;8.728;2023-04-06T20:02:44;108415.00;;;222.90
12234;BMP180;6179;51.748;8.728;2023-04-06T20:08:45;108421.00;;;222.90
12234;BMP180;6179;51.748;8.728;2023-04-06T20:14:46;108423.00;;;222.90
12234;BMP180;6179;51.748;8.728;2023-04-06T20:20:46;108418.00;;;222.90
12234;BMP180;6179;51.748;8.728;2023-04-06T20:26:49;108420.00;;;222.90
12234;BMP180;6179;51.748;8.728;2023-04-06T20:32:50;108417.00;;;222.90
12234;BMP180;6179;51.748;8.728;2023-04-06T20:38:51;108416.00;;;222.90
12234;BMP180;6179;51.748;8.728;2023-04-06T20:44:51;108418.00;;;222.90
12234;BMP180;6179;51.748;8.728;2023-04-06T20:50:53;108422.00;;;222.90
12234;BMP180;6179;51.748;8.728;2023-04-06T20:56:54;108419.00;;;222.90
12234;BMP180;6179;51.748;8.728;2023-04-06T21:02:59;108419.00;;;222.90
12234;BMP180;6179;51.748;8.728;2023-04-06T21:09:00;108417.00;;;222.90
12234;BMP180;6179;51.748;8.728;2023-04-06T21:15:01;108423.00;;;222.90
12234;BMP180;6179;51.748;8.728;2023-04-06T21:21:02;108421.00;;;222.90
12234;BMP180;6179;51.748;8.728;2023-04-06T21:27:03;108416.00;;;222.90
12234;BMP180;6179;51.748;8.728;2023-04-06T21:33:05;108417.00;;;222.90
12234;BMP180;6179;51.748;8.728;2023-04-06T21:39:06;108422.00;;;222.90
12234;BMP180;6179;51.748;8.728;2023-04-06T21:45:07;108418.00;;;222.90
12234;BMP180;6179;51.748;8.728;2023-04-06T21:51:19;108419.00;;;222.90
12234;BMP180;6179;51.748;8.728;2023-04-06T21:57:19;108415.00;;;222.90
12234;BMP180;6179;51.748;8.728;2023-04-06T22:03:20;108417.00;;;222.90
12234;BMP180;6179;51.748;8.728;2023-04-06T22:09:21;108422.00;;;222.90
12234;BMP180;6179;51.748;8.728;2023-04-06T22:15:22;108423.00;;;222.90
12234;BMP180;6179;51.748;8.728;2023-04-06T22:21:23;108419.00;;;222.90
12234;BMP180;6179;51.748;8.728;2023-04-06T22:27:24;108417.00;;;222.90
12234;BMP180;6179;51.748;8.728;2023-04-06T22:33:25;108421.00;;;222.90
12234;BMP180;6179;51.748;8.728;2023-04-06T22:39:25;108417.00;;;222.90
12234;BMP180;6179;51.748;8.728;2023-04-06T22:45:26;108421.00;;;222.90
12234;BMP180;6179;51.748;8.728;2023-04-06T22:51:27;108413.00;;;222.90
12234;BMP180;6179;51.748;8.728;2023-04-06T22:57:28;108418.00;;;222.90
12234;BMP180;6179;51.748;8.728;2023-04-06T23:03:29;108421.00;;;222.90
12234;BMP180;6179;51.748;8.728;2023-04-06T23:09:30;108419.00;;;222.90
12234;BMP180;6179;51.748;8.728;2023-04-06T23:15:31;108420.00;;;222.90
12234;BMP180;6179;51.748;8.728;2023-04-06T23:21:32;108411.00;;;222.90
12234;BMP180;6179;51.748;8.728;2023-04-06T23:27:33;108415.00;;;222.90
12234;BMP180;6179;51.748;8.728;2023-04-06T23:33:34;108417.00;;;222.90
12234;BMP180;6179;51.748;8.728;2023-04-06T23:39:35;108420.00;;;222.90
12234;BMP180;6179;51.748;8.728;2023-04-06T23:45:40;108417.00;;;222.90
12234;BMP180;6179;51.748;8.728;2023-04-06T23:51:41;108417.00;;;222.90
12234;BMP180;6179;51.748;8.728;2023-04-06T23:57:42;108423.00;;;222.90
